sensor_id;sensor_type;location;lat;lon;timestamp;P1;durP1;ratioP1;P2;durP2;ratioP2
74670;SDS011;63196;39.564;2.628;2023-05-29T00:02:14;9.90;;;2.40;;
74670;SDS011;63196;39.564;2.628;2023-05-29T00:04:40;6.60;;;1.90;;
74670;SDS011;63196;39.564;2.628;2023-05-29T00:07:05;7.20;;;2.00;;
74670;SDS011;63196;39.564;2.628;2023-05-29T00:09:31;8.80;;;1.90;;
74670;SDS011;63196;39.564;2.628;2023-05-29T00:11:56;4.50;;;1.80;;
74670;SDS011;63196;39.564;2.628;2023-05-29T00:14:21;8.50;;;2.30;;
74670;SDS011;63196;39.564;2.628;2023-05-29T00:16:48;6.20;;;2.10;;
74670;SDS011;63196;39.564;2.628;2023-05-29T00:19:14;7.40;;;2.40;;
74670;SDS011;63196;39.564;2.628;2023-05-29T00:21:42;4.90;;;2.30;;
74670;SDS011;63196;39.564;2.628;2023-05-29T00:24:07;6.50;;;2.60;;
74670;SDS011;63196;39.564;2.628;2023-05-29T00:26:32;5.40;;;2.70;;
74670;SDS011;63196;39.564;2.628;2023-05-29T00:28:58;6.80;;;2.50;;
74670;SDS011;63196;39.564;2.628;2023-05-29T00:31:23;6.00;;;2.20;;
74670;SDS011;63196;39.564;2.628;2023-05-29T00:33:49;4.50;;;1.80;;
74670;SDS011;63196;39.564;2.628;2023-05-29T00:36:14;5.80;;;2.00;;
74670;SDS011;63196;39.564;2.628;2023-05-29T00:38:40;6.00;;;2.80;;
74670;SDS011;63196;39.564;2.628;2023-05-29T00:41:05;4.70;;;2.10;;
74670;SDS011;63196;39.564;2.628;2023-05-29T00:43:31;6.20;;;1.70;;
74670;SDS011;63196;39.564;2.628;2023-05-29T00:45:56;5.50;;;1.90;;
74670;SDS011;63196;39.564;2.628;2023-05-29T00:48:25;3.90;;;1.60;;
74670;SDS011;63196;39.564;2.628;2023-05-29T00:50:51;5.90;;;2.50;;
74670;SDS011;63196;39.564;2.628;2023-05-29T00:53:16;5.10;;;2.00;;
74670;SDS011;63196;39.564;2.628;2023-05-29T00:55:41;3.90;;;1.80;;
74670;SDS011;63196;39.564;2.628;2023-05-29T00:58:07;5.80;;;2.10;;
74670;SDS011;63196;39.564;2.628;2023-05-29T01:00:32;5.60;;;2.20;;
74670;SDS011;63196;39.564;2.628;2023-05-29T01:02:59;7.40;;;2.10;;
74670;SDS011;63196;39.564;2.628;2023-05-29T01:05:27;4.00;;;1.70;;
74670;SDS011;63196;39.564;2.628;2023-05-29T01:07:53;6.50;;;2.30;;
74670;SDS011;63196;39.564;2.628;2023-05-29T01:10:19;4.00;;;1.50;;
74670;SDS011;63196;39.564;2.628;2023-05-29T01:12:49;4.80;;;1.90;;
74670;SDS011;63196;39.564;2.628;2023-05-29T01:20:23;7.00;;;2.30;;
74670;SDS011;63196;39.564;2.628;2023-05-29T01:23:07;6.00;;;1.80;;
74670;SDS011;63196;39.564;2.628;2023-05-29T01:28:19;5.50;;;1.80;;
74670;SDS011;63196;39.564;2.628;2023-05-29T01:30:46;6.40;;;2.20;;
74670;SDS011;63196;39.564;2.628;2023-05-29T01:33:12;4.60;;;1.90;;
74670;SDS011;63196;39.564;2.628;2023-05-29T01:35:37;6.00;;;2.00;;
74670;SDS011;63196;39.564;2.628;2023-05-29T01:38:03;5.30;;;2.30;;
74670;SDS011;63196;39.564;2.628;2023-05-29T01:40:28;3.80;;;1.90;;
74670;SDS011;63196;39.564;2.628;2023-05-29T01:42:53;6.00;;;2.20;;
74670;SDS011;63196;39.564;2.628;2023-05-29T01:45:19;6.20;;;1.80;;
74670;SDS011;63196;39.564;2.628;2023-05-29T01:47:45;7.70;;;2.00;;
74670;SDS011;63196;39.564;2.628;2023-05-29T01:50:12;4.40;;;1.90;;
74670;SDS011;63196;39.564;2.628;2023-05-29T01:52:38;6.00;;;2.50;;
74670;SDS011;63196;39.564;2.628;2023-05-29T01:55:04;5.10;;;2.00;;
74670;SDS011;63196;39.564;2.628;2023-05-29T01:57:29;4.70;;;1.70;;
74670;SDS011;63196;39.564;2.628;2023-05-29T01:59:55;5.50;;;2.00;;
74670;SDS011;63196;39.564;2.628;2023-05-29T02:02:23;4.30;;;1.70;;
74670;SDS011;63196;39.564;2.628;2023-05-29T02:04:49;4.90;;;2.20;;
74670;SDS011;63196;39.564;2.628;2023-05-29T02:07:14;4.10;;;1.80;;
74670;SDS011;63196;39.564;2.628;2023-05-29T02:09:40;5.50;;;2.00;;
74670;SDS011;63196;39.564;2.628;2023-05-29T02:12:06;5.70;;;1.80;;
74670;SDS011;63196;39.564;2.628;2023-05-29T02:14:32;4.40;;;2.30;;
74670;SDS011;63196;39.564;2.628;2023-05-29T02:16:57;6.60;;;2.50;;
74670;SDS011;63196;39.564;2.628;2023-05-29T02:19:23;4.50;;;2.10;;
74670;SDS011;63196;39.564;2.628;2023-05-29T02:21:50;6.50;;;2.30;;
74670;SDS011;63196;39.564;2.628;2023-05-29T02:24:16;4.60;;;1.90;;
74670;SDS011;63196;39.564;2.628;2023-05-29T02:26:41;5.90;;;1.80;;
74670;SDS011;63196;39.564;2.628;2023-05-29T02:29:07;5.50;;;2.00;;
74670;SDS011;63196;39.564;2.628;2023-05-29T02:31:32;5.60;;;2.20;;
74670;SDS011;63196;39.564;2.628;2023-05-29T02:33:58;5.10;;;2.10;;
74670;SDS011;63196;39.564;2.628;2023-05-29T02:36:23;4.30;;;2.00;;
74670;SDS011;63196;39.564;2.628;2023-05-29T02:38:48;6.70;;;2.00;;
74670;SDS011;63196;39.564;2.628;2023-05-29T02:41:14;6.50;;;2.30;;
74670;SDS011;63196;39.564;2.628;2023-05-29T02:43:40;4.90;;;1.80;;
74670;SDS011;63196;39.564;2.628;2023-05-29T02:46:05;6.30;;;2.00;;
74670;SDS011;63196;39.564;2.628;2023-05-29T02:48:30;5.90;;;1.60;;
74670;SDS011;63196;39.564;2.628;2023-05-29T02:50:56;4.10;;;1.90;;
74670;SDS011;63196;39.564;2.628;2023-05-29T02:53:21;6.20;;;1.90;;
74670;SDS011;63196;39.564;2.628;2023-05-29T02:55:48;6.70;;;1.70;;
74670;SDS011;63196;39.564;2.628;2023-05-29T02:58:13;5.90;;;2.00;;
74670;SDS011;63196;39.564;2.628;2023-05-29T03:00:38;4.30;;;2.10;;
74670;SDS011;63196;39.564;2.628;2023-05-29T03:03:04;5.10;;;2.30;;
74670;SDS011;63196;39.564;2.628;2023-05-29T03:05:29;5.40;;;2.50;;
74670;SDS011;63196;39.564;2.628;2023-05-29T03:07:55;4.30;;;1.80;;
74670;SDS011;63196;39.564;2.628;2023-05-29T03:10:20;4.30;;;1.80;;
74670;SDS011;63196;39.564;2.628;2023-05-29T03:12:46;4.90;;;2.00;;
74670;SDS011;63196;39.564;2.628;2023-05-29T03:15:12;4.40;;;1.70;;
74670;SDS011;63196;39.564;2.628;2023-05-29T03:17:37;4.90;;;2.20;;
74670;SDS011;63196;39.564;2.628;2023-05-29T03:20:03;5.10;;;2.10;;
74670;SDS011;63196;39.564;2.628;2023-05-29T03:22:31;4.40;;;1.90;;
74670;SDS011;63196;39.564;2.628;2023-05-29T03:24:57;3.90;;;1.90;;
74670;SDS011;63196;39.564;2.628;2023-05-29T03:27:22;5.90;;;1.70;;
74670;SDS011;63196;39.564;2.628;2023-05-29T03:29:47;4.50;;;1.70;;
74670;SDS011;63196;39.564;2.628;2023-05-29T03:32:13;3.80;;;1.80;;
74670;SDS011;63196;39.564;2.628;2023-05-29T03:34:38;5.30;;;2.10;;
74670;SDS011;63196;39.564;2.628;2023-05-29T03:37:05;5.80;;;2.10;;
74670;SDS011;63196;39.564;2.628;2023-05-29T03:39:30;4.70;;;1.60;;
74670;SDS011;63196;39.564;2.628;2023-05-29T03:41:56;6.00;;;1.80;;
74670;SDS011;63196;39.564;2.628;2023-05-29T03:44:21;6.70;;;2.40;;
74670;SDS011;63196;39.564;2.628;2023-05-29T03:46:46;4.60;;;1.60;;
74670;SDS011;63196;39.564;2.628;2023-05-29T03:49:12;4.10;;;2.00;;
74670;SDS011;63196;39.564;2.628;2023-05-29T03:51:37;5.50;;;1.60;;
74670;SDS011;63196;39.564;2.628;2023-05-29T03:54:03;7.60;;;2.40;;
74670;SDS011;63196;39.564;2.628;2023-05-29T03:56:28;5.30;;;2.20;;
74670;SDS011;63196;39.564;2.628;2023-05-29T03:58:53;4.60;;;1.70;;
74670;SDS011;63196;39.564;2.628;2023-05-29T04:01:19;7.50;;;2.10;;
74670;SDS011;63196;39.564;2.628;2023-05-29T04:03:45;5.10;;;1.90;;
74670;SDS011;63196;39.564;2.628;2023-05-29T04:06:11;4.20;;;2.30;;
74670;SDS011;63196;39.564;2.628;2023-05-29T04:08:36;5.10;;;1.80;;
74670;SDS011;63196;39.564;2.628;2023-05-29T04:11:02;4.70;;;2.10;;
74670;SDS011;63196;39.564;2.628;2023-05-29T04:13:28;7.60;;;2.00;;
74670;SDS011;63196;39.564;2.628;2023-05-29T04:15:54;4.80;;;1.70;;
74670;SDS011;63196;39.564;2.628;2023-05-29T04:18:20;5.80;;;2.00;;
74670;SDS011;63196;39.564;2.628;2023-05-29T04:20:45;5.00;;;1.90;;
74670;SDS011;63196;39.564;2.628;2023-05-29T04:23:12;3.80;;;1.70;;
74670;SDS011;63196;39.564;2.628;2023-05-29T04:25:37;6.30;;;2.00;;
74670;SDS011;63196;39.564;2.628;2023-05-29T04:28:03;4.10;;;2.10;;
74670;SDS011;63196;39.564;2.628;2023-05-29T04:30:28;4.50;;;1.70;;
74670;SDS011;63196;39.564;2.628;2023-05-29T04:32:54;3.60;;;1.30;;
74670;SDS011;63196;39.564;2.628;2023-05-29T04:35:19;5.10;;;1.80;;
74670;SDS011;63196;39.564;2.628;2023-05-29T04:37:44;4.90;;;1.70;;
74670;SDS011;63196;39.564;2.628;2023-05-29T04:40:11;5.50;;;2.00;;
74670;SDS011;63196;39.564;2.628;2023-05-29T04:42:36;4.60;;;2.10;;
74670;SDS011;63196;39.564;2.628;2023-05-29T04:45:02;5.90;;;1.60;;
74670;SDS011;63196;39.564;2.628;2023-05-29T04:47:28;6.60;;;2.00;;
74670;SDS011;63196;39.564;2.628;2023-05-29T04:49:54;4.10;;;1.50;;
74670;SDS011;63196;39.564;2.628;2023-05-29T04:52:19;4.10;;;1.90;;
74670;SDS011;63196;39.564;2.628;2023-05-29T04:54:46;6.60;;;2.20;;
74670;SDS011;63196;39.564;2.628;2023-05-29T04:57:11;4.80;;;2.00;;
74670;SDS011;63196;39.564;2.628;2023-05-29T04:59:37;7.40;;;2.30;;
74670;SDS011;63196;39.564;2.628;2023-05-29T05:02:02;4.40;;;2.30;;
74670;SDS011;63196;39.564;2.628;2023-05-29T05:04:27;6.50;;;2.50;;
74670;SDS011;63196;39.564;2.628;2023-05-29T05:06:53;4.10;;;2.00;;
74670;SDS011;63196;39.564;2.628;2023-05-29T05:09:18;6.70;;;2.60;;
74670;SDS011;63196;39.564;2.628;2023-05-29T05:11:43;5.90;;;2.70;;
74670;SDS011;63196;39.564;2.628;2023-05-29T05:14:09;6.00;;;2.30;;
74670;SDS011;63196;39.564;2.628;2023-05-29T05:16:34;4.30;;;2.00;;
74670;SDS011;63196;39.564;2.628;2023-05-29T05:19:00;4.40;;;2.10;;
74670;SDS011;63196;39.564;2.628;2023-05-29T05:21:25;3.70;;;1.60;;
74670;SDS011;63196;39.564;2.628;2023-05-29T05:23:50;4.50;;;1.90;;
74670;SDS011;63196;39.564;2.628;2023-05-29T05:26:16;8.20;;;2.60;;
74670;SDS011;63196;39.564;2.628;2023-05-29T05:28:41;4.30;;;1.80;;
74670;SDS011;63196;39.564;2.628;2023-05-29T05:31:07;5.70;;;2.00;;
74670;SDS011;63196;39.564;2.628;2023-05-29T05:33:33;5.40;;;2.40;;
74670;SDS011;63196;39.564;2.628;2023-05-29T05:35:59;7.20;;;2.60;;
74670;SDS011;63196;39.564;2.628;2023-05-29T05:38:24;5.60;;;2.30;;
74670;SDS011;63196;39.564;2.628;2023-05-29T05:40:50;8.50;;;2.70;;
74670;SDS011;63196;39.564;2.628;2023-05-29T05:43:15;5.90;;;2.00;;
74670;SDS011;63196;39.564;2.628;2023-05-29T05:45:40;5.50;;;2.40;;
74670;SDS011;63196;39.564;2.628;2023-05-29T05:48:07;5.40;;;2.30;;
74670;SDS011;63196;39.564;2.628;2023-05-29T05:50:33;5.60;;;2.40;;
74670;SDS011;63196;39.564;2.628;2023-05-29T05:52:59;6.90;;;2.40;;
74670;SDS011;63196;39.564;2.628;2023-05-29T05:55:24;8.10;;;2.10;;
74670;SDS011;63196;39.564;2.628;2023-05-29T05:57:51;8.00;;;2.70;;
74670;SDS011;63196;39.564;2.628;2023-05-29T06:00:17;7.70;;;2.50;;
74670;SDS011;63196;39.564;2.628;2023-05-29T06:02:42;4.70;;;2.30;;
74670;SDS011;63196;39.564;2.628;2023-05-29T06:05:09;5.10;;;2.00;;
74670;SDS011;63196;39.564;2.628;2023-05-29T06:07:36;6.50;;;2.60;;
74670;SDS011;63196;39.564;2.628;2023-05-29T06:10:02;6.40;;;2.20;;
74670;SDS011;63196;39.564;2.628;2023-05-29T06:12:28;9.00;;;2.80;;
74670;SDS011;63196;39.564;2.628;2023-05-29T06:14:53;8.90;;;2.70;;
74670;SDS011;63196;39.564;2.628;2023-05-29T06:17:19;8.20;;;2.60;;
74670;SDS011;63196;39.564;2.628;2023-05-29T06:19:44;8.00;;;2.80;;
74670;SDS011;63196;39.564;2.628;2023-05-29T06:22:10;6.20;;;2.20;;
74670;SDS011;63196;39.564;2.628;2023-05-29T06:24:35;7.20;;;2.20;;
74670;SDS011;63196;39.564;2.628;2023-05-29T06:27:00;7.10;;;2.40;;
74670;SDS011;63196;39.564;2.628;2023-05-29T06:29:26;13.70;;;2.30;;
74670;SDS011;63196;39.564;2.628;2023-05-29T06:31:52;8.10;;;2.40;;
74670;SDS011;63196;39.564;2.628;2023-05-29T06:34:17;10.40;;;2.70;;
74670;SDS011;63196;39.564;2.628;2023-05-29T06:36:42;5.30;;;2.20;;
74670;SDS011;63196;39.564;2.628;2023-05-29T06:39:08;6.60;;;2.30;;
74670;SDS011;63196;39.564;2.628;2023-05-29T06:41:33;5.50;;;2.30;;
74670;SDS011;63196;39.564;2.628;2023-05-29T06:43:59;6.10;;;2.20;;
74670;SDS011;63196;39.564;2.628;2023-05-29T06:46:25;7.60;;;2.50;;
74670;SDS011;63196;39.564;2.628;2023-05-29T06:48:50;7.70;;;2.40;;
74670;SDS011;63196;39.564;2.628;2023-05-29T06:51:16;8.40;;;2.70;;
74670;SDS011;63196;39.564;2.628;2023-05-29T06:53:41;9.90;;;2.20;;
74670;SDS011;63196;39.564;2.628;2023-05-29T06:56:07;5.20;;;2.00;;
74670;SDS011;63196;39.564;2.628;2023-05-29T06:58:32;7.10;;;2.50;;
74670;SDS011;63196;39.564;2.628;2023-05-29T07:00:58;11.40;;;2.30;;
74670;SDS011;63196;39.564;2.628;2023-05-29T07:03:26;7.60;;;2.60;;
74670;SDS011;63196;39.564;2.628;2023-05-29T07:05:52;8.00;;;2.70;;
74670;SDS011;63196;39.564;2.628;2023-05-29T07:08:18;6.00;;;2.60;;
74670;SDS011;63196;39.564;2.628;2023-05-29T07:10:43;5.70;;;2.30;;
74670;SDS011;63196;39.564;2.628;2023-05-29T07:13:09;7.60;;;2.30;;
74670;SDS011;63196;39.564;2.628;2023-05-29T07:15:34;6.90;;;2.50;;
74670;SDS011;63196;39.564;2.628;2023-05-29T07:17:59;9.60;;;2.50;;
74670;SDS011;63196;39.564;2.628;2023-05-29T07:20:25;6.20;;;2.00;;
74670;SDS011;63196;39.564;2.628;2023-05-29T07:22:51;10.40;;;2.40;;
74670;SDS011;63196;39.564;2.628;2023-05-29T07:25:16;6.80;;;2.40;;
74670;SDS011;63196;39.564;2.628;2023-05-29T07:27:41;7.30;;;2.50;;
74670;SDS011;63196;39.564;2.628;2023-05-29T07:30:07;5.50;;;2.10;;
74670;SDS011;63196;39.564;2.628;2023-05-29T07:32:32;5.10;;;2.30;;
74670;SDS011;63196;39.564;2.628;2023-05-29T07:34:58;7.20;;;2.10;;
74670;SDS011;63196;39.564;2.628;2023-05-29T07:37:24;5.70;;;2.20;;
74670;SDS011;63196;39.564;2.628;2023-05-29T07:39:49;8.90;;;2.70;;
74670;SDS011;63196;39.564;2.628;2023-05-29T07:42:14;6.90;;;2.60;;
74670;SDS011;63196;39.564;2.628;2023-05-29T07:44:40;5.40;;;2.90;;
74670;SDS011;63196;39.564;2.628;2023-05-29T07:47:08;6.00;;;2.50;;
74670;SDS011;63196;39.564;2.628;2023-05-29T07:49:34;6.60;;;2.80;;
74670;SDS011;63196;39.564;2.628;2023-05-29T07:52:01;8.20;;;3.10;;
74670;SDS011;63196;39.564;2.628;2023-05-29T07:54:26;6.10;;;2.90;;
74670;SDS011;63196;39.564;2.628;2023-05-29T07:56:51;6.90;;;2.70;;
74670;SDS011;63196;39.564;2.628;2023-05-29T07:59:17;8.70;;;2.90;;
74670;SDS011;63196;39.564;2.628;2023-05-29T08:01:43;9.30;;;3.40;;
74670;SDS011;63196;39.564;2.628;2023-05-29T08:04:09;10.40;;;3.00;;
74670;SDS011;63196;39.564;2.628;2023-05-29T08:06:34;8.70;;;2.90;;
74670;SDS011;63196;39.564;2.628;2023-05-29T08:09:01;7.10;;;3.30;;
74670;SDS011;63196;39.564;2.628;2023-05-29T08:11:26;7.70;;;3.00;;
74670;SDS011;63196;39.564;2.628;2023-05-29T08:13:52;6.50;;;3.20;;
74670;SDS011;63196;39.564;2.628;2023-05-29T08:16:17;7.10;;;3.20;;
74670;SDS011;63196;39.564;2.628;2023-05-29T08:18:42;7.90;;;3.20;;
74670;SDS011;63196;39.564;2.628;2023-05-29T08:21:08;42.10;;;4.60;;
74670;SDS011;63196;39.564;2.628;2023-05-29T08:23:34;7.90;;;2.80;;
74670;SDS011;63196;39.564;2.628;2023-05-29T08:26:00;6.20;;;3.20;;
74670;SDS011;63196;39.564;2.628;2023-05-29T08:28:25;7.40;;;2.40;;
74670;SDS011;63196;39.564;2.628;2023-05-29T08:30:52;4.40;;;2.10;;
74670;SDS011;63196;39.564;2.628;2023-05-29T08:33:17;9.90;;;3.50;;
74670;SDS011;63196;39.564;2.628;2023-05-29T08:35:43;3.80;;;1.90;;
74670;SDS011;63196;39.564;2.628;2023-05-29T08:38:08;8.10;;;3.50;;
74670;SDS011;63196;39.564;2.628;2023-05-29T08:40:33;7.10;;;2.50;;
74670;SDS011;63196;39.564;2.628;2023-05-29T08:45:30;8.80;;;3.50;;
74670;SDS011;63196;39.564;2.628;2023-05-29T08:47:57;7.10;;;2.80;;
74670;SDS011;63196;39.564;2.628;2023-05-29T08:50:23;6.90;;;2.70;;
74670;SDS011;63196;39.564;2.628;2023-05-29T08:52:48;12.80;;;3.70;;
74670;SDS011;63196;39.564;2.628;2023-05-29T08:55:16;9.10;;;3.30;;
74670;SDS011;63196;39.564;2.628;2023-05-29T08:57:41;6.70;;;3.00;;
74670;SDS011;63196;39.564;2.628;2023-05-29T09:00:08;6.40;;;2.30;;
74670;SDS011;63196;39.564;2.628;2023-05-29T09:02:46;6.20;;;2.60;;
74670;SDS011;63196;39.564;2.628;2023-05-29T09:05:11;7.50;;;2.90;;
74670;SDS011;63196;39.564;2.628;2023-05-29T09:07:38;6.40;;;2.60;;
74670;SDS011;63196;39.564;2.628;2023-05-29T09:10:08;6.20;;;2.70;;
74670;SDS011;63196;39.564;2.628;2023-05-29T09:12:34;8.50;;;3.00;;
74670;SDS011;63196;39.564;2.628;2023-05-29T09:14:59;9.10;;;2.40;;
74670;SDS011;63196;39.564;2.628;2023-05-29T09:17:29;13.10;;;3.60;;
74670;SDS011;63196;39.564;2.628;2023-05-29T09:19:55;19.50;;;3.00;;
74670;SDS011;63196;39.564;2.628;2023-05-29T09:22:20;7.80;;;2.60;;
74670;SDS011;63196;39.564;2.628;2023-05-29T09:24:46;18.30;;;4.00;;
74670;SDS011;63196;39.564;2.628;2023-05-29T09:27:12;7.20;;;2.40;;
74670;SDS011;63196;39.564;2.628;2023-05-29T09:29:42;5.50;;;2.20;;
74670;SDS011;63196;39.564;2.628;2023-05-29T09:32:08;6.20;;;1.90;;
74670;SDS011;63196;39.564;2.628;2023-05-29T09:34:34;6.70;;;2.30;;
74670;SDS011;63196;39.564;2.628;2023-05-29T09:37:06;5.00;;;2.10;;
74670;SDS011;63196;39.564;2.628;2023-05-29T09:42:06;5.50;;;2.10;;
74670;SDS011;63196;39.564;2.628;2023-05-29T09:44:32;4.70;;;2.00;;
74670;SDS011;63196;39.564;2.628;2023-05-29T09:46:58;8.30;;;1.70;;
74670;SDS011;63196;39.564;2.628;2023-05-29T09:49:24;5.20;;;1.70;;
74670;SDS011;63196;39.564;2.628;2023-05-29T09:51:53;9.10;;;2.90;;
74670;SDS011;63196;39.564;2.628;2023-05-29T09:54:19;4.70;;;1.60;;
74670;SDS011;63196;39.564;2.628;2023-05-29T09:56:45;5.20;;;2.40;;
74670;SDS011;63196;39.564;2.628;2023-05-29T09:59:11;5.90;;;2.60;;
74670;SDS011;63196;39.564;2.628;2023-05-29T10:01:38;4.60;;;2.00;;
74670;SDS011;63196;39.564;2.628;2023-05-29T10:04:04;6.40;;;2.10;;
74670;SDS011;63196;39.564;2.628;2023-05-29T10:06:30;4.80;;;1.80;;
74670;SDS011;63196;39.564;2.628;2023-05-29T10:08:55;6.70;;;1.60;;
74670;SDS011;63196;39.564;2.628;2023-05-29T10:11:22;4.10;;;1.40;;
74670;SDS011;63196;39.564;2.628;2023-05-29T10:13:52;4.10;;;1.50;;
74670;SDS011;63196;39.564;2.628;2023-05-29T10:16:22;6.30;;;2.00;;
74670;SDS011;63196;39.564;2.628;2023-05-29T10:18:55;5.60;;;1.90;;
74670;SDS011;63196;39.564;2.628;2023-05-29T10:21:21;6.10;;;1.90;;
74670;SDS011;63196;39.564;2.628;2023-05-29T10:23:47;5.30;;;1.40;;
74670;SDS011;63196;39.564;2.628;2023-05-29T10:26:19;8.40;;;2.00;;
74670;SDS011;63196;39.564;2.628;2023-05-29T10:28:55;7.80;;;2.30;;
74670;SDS011;63196;39.564;2.628;2023-05-29T10:31:22;7.00;;;2.40;;
74670;SDS011;63196;39.564;2.628;2023-05-29T10:36:19;4.60;;;2.20;;
74670;SDS011;63196;39.564;2.628;2023-05-29T10:38:47;8.10;;;2.80;;
74670;SDS011;63196;39.564;2.628;2023-05-29T10:43:54;6.40;;;1.80;;
74670;SDS011;63196;39.564;2.628;2023-05-29T10:46:20;6.80;;;1.90;;
74670;SDS011;63196;39.564;2.628;2023-05-29T10:48:47;4.70;;;1.80;;
74670;SDS011;63196;39.564;2.628;2023-05-29T10:51:24;5.00;;;1.70;;
74670;SDS011;63196;39.564;2.628;2023-05-29T10:53:50;5.20;;;1.00;;
74670;SDS011;63196;39.564;2.628;2023-05-29T10:56:20;6.90;;;2.10;;
74670;SDS011;63196;39.564;2.628;2023-05-29T10:58:52;5.40;;;1.50;;
74670;SDS011;63196;39.564;2.628;2023-05-29T11:01:22;4.70;;;1.30;;
74670;SDS011;63196;39.564;2.628;2023-05-29T11:03:48;4.30;;;1.50;;
74670;SDS011;63196;39.564;2.628;2023-05-29T11:06:20;3.50;;;1.10;;
74670;SDS011;63196;39.564;2.628;2023-05-29T11:11:11;5.50;;;1.30;;
74670;SDS011;63196;39.564;2.628;2023-05-29T11:13:37;4.60;;;1.10;;
74670;SDS011;63196;39.564;2.628;2023-05-29T11:18:47;5.60;;;1.30;;
74670;SDS011;63196;39.564;2.628;2023-05-29T11:21:15;6.00;;;1.30;;
74670;SDS011;63196;39.564;2.628;2023-05-29T11:23:46;2.80;;;1.00;;
74670;SDS011;63196;39.564;2.628;2023-05-29T11:26:12;4.50;;;1.40;;
74670;SDS011;63196;39.564;2.628;2023-05-29T11:28:38;4.70;;;1.30;;
74670;SDS011;63196;39.564;2.628;2023-05-29T11:31:07;7.00;;;1.60;;
74670;SDS011;63196;39.564;2.628;2023-05-29T11:33:33;4.70;;;1.30;;
74670;SDS011;63196;39.564;2.628;2023-05-29T11:36:00;4.90;;;1.50;;
74670;SDS011;63196;39.564;2.628;2023-05-29T11:38:28;4.90;;;1.60;;
74670;SDS011;63196;39.564;2.628;2023-05-29T11:40:54;4.70;;;1.30;;
74670;SDS011;63196;39.564;2.628;2023-05-29T11:43:20;7.20;;;1.80;;
74670;SDS011;63196;39.564;2.628;2023-05-29T11:45:45;9.80;;;2.10;;
74670;SDS011;63196;39.564;2.628;2023-05-29T11:48:11;6.50;;;1.50;;
74670;SDS011;63196;39.564;2.628;2023-05-29T11:50:36;4.70;;;1.30;;
74670;SDS011;63196;39.564;2.628;2023-05-29T11:53:01;4.10;;;1.30;;
74670;SDS011;63196;39.564;2.628;2023-05-29T11:55:27;6.20;;;1.70;;
74670;SDS011;63196;39.564;2.628;2023-05-29T11:57:57;4.90;;;1.70;;
74670;SDS011;63196;39.564;2.628;2023-05-29T12:00:23;5.80;;;1.40;;
74670;SDS011;63196;39.564;2.628;2023-05-29T12:02:49;3.60;;;1.20;;
74670;SDS011;63196;39.564;2.628;2023-05-29T12:05:16;5.90;;;1.50;;
74670;SDS011;63196;39.564;2.628;2023-05-29T12:08:16;6.30;;;1.40;;
74670;SDS011;63196;39.564;2.628;2023-05-29T12:10:35;4.90;;;2.00;;
74670;SDS011;63196;39.564;2.628;2023-05-29T12:13:00;3.90;;;1.60;;
74670;SDS011;63196;39.564;2.628;2023-05-29T12:15:26;6.20;;;2.00;;
74670;SDS011;63196;39.564;2.628;2023-05-29T12:17:52;5.40;;;1.60;;
74670;SDS011;63196;39.564;2.628;2023-05-29T12:20:18;7.10;;;1.60;;
74670;SDS011;63196;39.564;2.628;2023-05-29T12:22:44;6.10;;;1.80;;
74670;SDS011;63196;39.564;2.628;2023-05-29T12:25:11;11.10;;;2.70;;
74670;SDS011;63196;39.564;2.628;2023-05-29T12:27:39;4.40;;;1.70;;
74670;SDS011;63196;39.564;2.628;2023-05-29T12:30:16;5.50;;;1.70;;
74670;SDS011;63196;39.564;2.628;2023-05-29T12:32:46;9.00;;;1.90;;
74670;SDS011;63196;39.564;2.628;2023-05-29T12:37:52;9.80;;;1.80;;
74670;SDS011;63196;39.564;2.628;2023-05-29T12:40:22;6.40;;;2.00;;
74670;SDS011;63196;39.564;2.628;2023-05-29T12:42:48;9.80;;;2.10;;
74670;SDS011;63196;39.564;2.628;2023-05-29T12:45:14;5.80;;;1.70;;
74670;SDS011;63196;39.564;2.628;2023-05-29T12:50:21;4.40;;;1.60;;
74670;SDS011;63196;39.564;2.628;2023-05-29T12:55:25;4.10;;;1.70;;
74670;SDS011;63196;39.564;2.628;2023-05-29T12:57:50;5.10;;;1.60;;
74670;SDS011;63196;39.564;2.628;2023-05-29T13:00:16;4.60;;;1.60;;
74670;SDS011;63196;39.564;2.628;2023-05-29T13:02:43;6.10;;;1.60;;
74670;SDS011;63196;39.564;2.628;2023-05-29T13:05:09;6.20;;;1.90;;
74670;SDS011;63196;39.564;2.628;2023-05-29T13:07:34;6.30;;;1.80;;
74670;SDS011;63196;39.564;2.628;2023-05-29T13:10:00;5.90;;;1.80;;
74670;SDS011;63196;39.564;2.628;2023-05-29T13:12:27;8.30;;;2.50;;
74670;SDS011;63196;39.564;2.628;2023-05-29T13:14:52;4.90;;;2.40;;
74670;SDS011;63196;39.564;2.628;2023-05-29T13:17:20;4.60;;;2.00;;
74670;SDS011;63196;39.564;2.628;2023-05-29T13:19:46;5.60;;;2.20;;
74670;SDS011;63196;39.564;2.628;2023-05-29T13:22:11;5.70;;;2.10;;
74670;SDS011;63196;39.564;2.628;2023-05-29T13:24:36;5.40;;;2.30;;
74670;SDS011;63196;39.564;2.628;2023-05-29T13:27:02;8.30;;;2.20;;
74670;SDS011;63196;39.564;2.628;2023-05-29T13:29:27;7.40;;;2.60;;
74670;SDS011;63196;39.564;2.628;2023-05-29T13:31:53;5.40;;;2.60;;
74670;SDS011;63196;39.564;2.628;2023-05-29T13:34:18;10.70;;;2.90;;
74670;SDS011;63196;39.564;2.628;2023-05-29T13:36:43;7.00;;;2.90;;
74670;SDS011;63196;39.564;2.628;2023-05-29T13:39:11;6.90;;;2.80;;
74670;SDS011;63196;39.564;2.628;2023-05-29T13:41:37;6.80;;;2.70;;
74670;SDS011;63196;39.564;2.628;2023-05-29T13:44:02;7.00;;;2.50;;
74670;SDS011;63196;39.564;2.628;2023-05-29T13:46:28;4.80;;;2.50;;
74670;SDS011;63196;39.564;2.628;2023-05-29T13:48:53;6.80;;;2.50;;
74670;SDS011;63196;39.564;2.628;2023-05-29T13:51:18;6.80;;;3.50;;
74670;SDS011;63196;39.564;2.628;2023-05-29T13:53:44;6.10;;;2.50;;
74670;SDS011;63196;39.564;2.628;2023-05-29T13:56:09;6.80;;;2.00;;
74670;SDS011;63196;39.564;2.628;2023-05-29T13:58:34;6.90;;;2.50;;
74670;SDS011;63196;39.564;2.628;2023-05-29T14:01:00;7.50;;;2.60;;
74670;SDS011;63196;39.564;2.628;2023-05-29T14:03:25;7.30;;;2.70;;
74670;SDS011;63196;39.564;2.628;2023-05-29T14:05:54;10.70;;;3.40;;
74670;SDS011;63196;39.564;2.628;2023-05-29T14:08:19;6.50;;;2.70;;
74670;SDS011;63196;39.564;2.628;2023-05-29T14:10:44;7.90;;;2.90;;
74670;SDS011;63196;39.564;2.628;2023-05-29T14:13:10;6.20;;;2.70;;
74670;SDS011;63196;39.564;2.628;2023-05-29T14:15:36;6.20;;;2.60;;
74670;SDS011;63196;39.564;2.628;2023-05-29T14:18:01;8.10;;;3.60;;
74670;SDS011;63196;39.564;2.628;2023-05-29T14:20:27;6.90;;;3.10;;
74670;SDS011;63196;39.564;2.628;2023-05-29T14:23:51;3.00;;;1.30;;
74670;SDS011;63196;39.564;2.628;2023-05-29T14:38:26;7.20;;;2.60;;
74670;SDS011;63196;39.564;2.628;2023-05-29T14:40:52;5.30;;;2.50;;
74670;SDS011;63196;39.564;2.628;2023-05-29T14:43:17;9.00;;;2.30;;
74670;SDS011;63196;39.564;2.628;2023-05-29T14:45:43;8.40;;;2.80;;
74670;SDS011;63196;39.564;2.628;2023-05-29T14:48:08;6.90;;;2.50;;
74670;SDS011;63196;39.564;2.628;2023-05-29T14:50:34;9.90;;;3.50;;
74670;SDS011;63196;39.564;2.628;2023-05-29T14:53:00;7.80;;;2.80;;
74670;SDS011;63196;39.564;2.628;2023-05-29T14:55:25;9.40;;;3.20;;
74670;SDS011;63196;39.564;2.628;2023-05-29T14:57:50;6.20;;;2.40;;
74670;SDS011;63196;39.564;2.628;2023-05-29T15:00:16;5.70;;;2.20;;
74670;SDS011;63196;39.564;2.628;2023-05-29T15:02:42;6.60;;;2.60;;
74670;SDS011;63196;39.564;2.628;2023-05-29T15:05:07;6.00;;;2.50;;
74670;SDS011;63196;39.564;2.628;2023-05-29T15:07:32;7.00;;;2.30;;
74670;SDS011;63196;39.564;2.628;2023-05-29T15:10:01;6.60;;;2.40;;
74670;SDS011;63196;39.564;2.628;2023-05-29T15:12:26;6.00;;;2.20;;
74670;SDS011;63196;39.564;2.628;2023-05-29T15:14:52;5.00;;;1.80;;
74670;SDS011;63196;39.564;2.628;2023-05-29T15:17:18;6.50;;;2.50;;
74670;SDS011;63196;39.564;2.628;2023-05-29T15:19:43;7.80;;;2.10;;
74670;SDS011;63196;39.564;2.628;2023-05-29T15:22:09;5.60;;;2.40;;
74670;SDS011;63196;39.564;2.628;2023-05-29T15:24:34;5.30;;;2.30;;
74670;SDS011;63196;39.564;2.628;2023-05-29T15:27:00;8.90;;;3.00;;